createdAt,value
2018-06-15T00:00:16.731Z,16.50
2018-06-15T00:02:51.502Z,20.47
2018-06-15T00:05:20.553Z,21.00
2018-06-15T00:07:49.358Z,28.37
2018-06-15T00:10:17.933Z,22.53
2018-06-15T00:12:46.950Z,23.77
2018-06-15T00:15:16.051Z,24.20
2018-06-15T00:17:44.607Z,26.87
2018-06-15T00:20:13.612Z,29.90
2018-06-15T00:22:42.273Z,26.23
2018-06-15T00:25:11.258Z,25.03
2018-06-15T00:27:39.955Z,24.80
2018-06-15T00:30:08.993Z,29.77
2018-06-15T00:32:37.640Z,27.60
2018-06-15T00:35:06.474Z,25.20
2018-06-15T00:37:35.298Z,31.97
2018-06-15T00:40:03.870Z,29.63
2018-06-15T00:42:32.709Z,35.20
2018-06-15T00:45:02.323Z,29.27
2018-06-15T00:47:31.478Z,32.70
2018-06-15T00:50:00.511Z,36.00
2018-06-15T00:52:29.673Z,39.33
2018-06-15T00:54:58.589Z,31.60
2018-06-15T00:57:42.945Z,31.10
2018-06-15T01:00:11.861Z,33.37
2018-06-15T01:02:41.013Z,33.47
2018-06-15T01:05:10.237Z,36.17
2018-06-15T01:07:39.097Z,37.13
2018-06-15T01:10:08.149Z,32.30
2018-06-15T01:12:37.224Z,37.70
2018-06-15T01:15:05.942Z,35.20
2018-06-15T01:17:35.373Z,31.97
2018-06-15T01:20:04.397Z,31.67
2018-06-15T01:22:33.129Z,32.57
2018-06-15T01:25:01.959Z,34.13
2018-06-15T01:27:30.810Z,43.73
2018-06-15T01:29:59.652Z,34.33
2018-06-15T01:32:28.760Z,37.13
2018-06-15T01:34:57.279Z,35.43
2018-06-15T01:37:26.173Z,36.60
2018-06-15T01:39:55.819Z,36.27
2018-06-15T01:42:24.615Z,35.77
2018-06-15T01:44:53.528Z,35.03
2018-06-15T01:47:22.237Z,38.03
2018-06-15T01:49:51.050Z,38.90
2018-06-15T01:52:20.209Z,35.53
2018-06-15T01:54:49.106Z,35.47
2018-06-15T01:57:17.946Z,42.00
2018-06-15T01:59:47.013Z,39.53
2018-06-15T02:02:16.127Z,42.10
2018-06-15T02:04:44.922Z,42.73
2018-06-15T02:07:14.259Z,39.43
2018-06-15T02:09:42.835Z,36.10
2018-06-15T02:12:11.305Z,37.47
2018-06-15T02:14:40.063Z,37.07
2018-06-15T02:17:09.261Z,37.10
2018-06-15T02:19:38.898Z,43.17
2018-06-15T02:22:08.145Z,40.00
2018-06-15T02:24:36.946Z,37.20
2018-06-15T02:27:06.066Z,37.60
2018-06-15T02:29:34.663Z,37.30
2018-06-15T02:32:03.406Z,38.97
2018-06-15T02:34:32.861Z,40.27
2018-06-15T02:37:01.636Z,36.97
2018-06-15T02:39:30.539Z,42.70
2018-06-15T02:41:59.643Z,41.83
2018-06-15T02:44:29.138Z,44.33
2018-06-15T02:46:57.949Z,43.73
2018-06-15T02:49:27.242Z,38.73
2018-06-15T02:51:56.103Z,40.50
2018-06-15T02:54:24.998Z,39.43
2018-06-15T02:56:53.781Z,43.20
2018-06-15T02:59:22.796Z,38.50
2018-06-15T03:01:51.826Z,41.90
2018-06-15T03:04:20.750Z,41.33
2018-06-15T03:06:49.854Z,43.90
2018-06-15T03:09:18.858Z,45.00
2018-06-15T03:11:47.345Z,47.30
2018-06-15T03:14:15.818Z,41.47
2018-06-15T03:16:44.925Z,43.23
2018-06-15T03:19:13.908Z,46.07
2018-06-15T03:21:43.058Z,43.83
2018-06-15T03:24:12.657Z,44.47
2018-06-15T03:26:41.681Z,45.57
2018-06-15T03:29:11.122Z,44.43
2018-06-15T03:31:40.623Z,45.87
2018-06-15T03:34:09.165Z,46.23
2018-06-15T03:36:37.636Z,45.40
2018-06-15T03:39:08.560Z,46.07
2018-06-15T03:41:37.361Z,42.80
2018-06-15T03:44:06.333Z,44.80
2018-06-15T03:46:35.625Z,48.13
2018-06-15T03:49:04.436Z,45.63
2018-06-15T03:51:33.359Z,49.80
2018-06-15T03:54:02.634Z,44.90
2018-06-15T03:56:31.887Z,46.13
2018-06-15T03:59:00.529Z,49.07
2018-06-15T04:01:29.684Z,46.33
2018-06-15T04:03:58.498Z,47.77
2018-06-15T04:06:27.663Z,49.70
2018-06-15T04:08:56.216Z,50.00
2018-06-15T04:11:25.323Z,45.57
2018-06-15T04:13:54.138Z,61.00
2018-06-15T04:16:23.283Z,48.43
2018-06-15T04:18:52.512Z,48.67
2018-06-15T04:21:21.577Z,50.77
2018-06-15T04:23:50.117Z,51.37
2018-06-15T04:26:18.889Z,58.07
2018-06-15T04:28:48.302Z,50.37
2018-06-15T04:31:17.484Z,54.57
2018-06-15T04:33:46.534Z,52.73
2018-06-15T04:36:15.698Z,49.53
2018-06-15T04:38:44.509Z,57.80
2018-06-15T04:41:13.316Z,56.77
2018-06-15T04:43:42.651Z,56.23
2018-06-15T04:46:11.542Z,61.27
2018-06-15T04:48:40.338Z,47.53
2018-06-15T04:51:16.002Z,49.70
2018-06-15T04:53:44.998Z,46.50
2018-06-15T04:56:14.178Z,44.87
2018-06-15T04:58:42.749Z,41.60
2018-06-15T05:01:11.466Z,46.80
2018-06-15T05:03:40.008Z,49.53
2018-06-15T05:06:08.727Z,46.70
2018-06-15T05:08:37.630Z,49.63
2018-06-15T05:11:06.357Z,47.00
2018-06-15T05:13:35.687Z,43.73
2018-06-15T05:16:04.459Z,48.20
2018-06-15T05:18:33.014Z,45.33
2018-06-15T05:21:02.654Z,43.20
2018-06-15T05:23:31.866Z,48.47
2018-06-15T05:26:00.680Z,42.23
2018-06-15T05:28:29.495Z,47.03
2018-06-15T05:30:58.694Z,46.10
2018-06-15T05:33:27.937Z,45.90
2018-06-15T05:35:57.287Z,42.50
2018-06-15T05:38:26.959Z,42.00
2018-06-15T05:40:55.931Z,45.57
2018-06-15T05:43:25.190Z,44.90
2018-06-15T05:45:53.982Z,43.93
2018-06-15T05:48:23.023Z,50.67
2018-06-15T05:50:52.139Z,45.73
2018-06-15T05:53:20.927Z,50.20
2018-06-15T05:55:49.777Z,40.67
2018-06-15T05:58:18.523Z,46.40
2018-06-15T06:00:47.609Z,42.07
2018-06-15T06:03:19.176Z,40.60
2018-06-15T06:05:49.438Z,39.13
2018-06-15T06:08:19.622Z,40.77
2018-06-15T06:10:48.633Z,41.33
2018-06-15T06:13:17.960Z,51.00
2018-06-15T06:15:47.411Z,44.57
2018-06-15T06:18:15.863Z,37.33
2018-06-15T06:20:45.059Z,46.10
2018-06-15T06:23:13.866Z,41.20
2018-06-15T06:25:42.470Z,44.37
2018-06-15T06:28:10.898Z,37.43
2018-06-15T06:30:39.441Z,41.93
2018-06-15T06:33:08.276Z,37.90
2018-06-15T06:35:36.931Z,42.87
2018-06-15T06:38:05.815Z,38.40
2018-06-15T06:40:34.382Z,40.50
2018-06-15T06:43:02.870Z,42.10
2018-06-15T06:45:31.773Z,49.20
2018-06-15T06:48:00.331Z,36.83
2018-06-15T06:50:28.821Z,36.33
2018-06-15T06:52:57.333Z,39.23
2018-06-15T06:55:26.140Z,31.67
2018-06-15T06:57:54.607Z,37.27
2018-06-15T07:00:23.420Z,32.33
2018-06-15T07:02:51.885Z,30.53
2018-06-15T07:05:20.648Z,30.87
2018-06-15T07:07:50.290Z,30.70
2018-06-15T07:10:18.830Z,33.40
2018-06-15T07:12:47.822Z,32.63
2018-06-15T07:15:16.393Z,32.67
2018-06-15T07:17:45.150Z,33.37
2018-06-15T07:20:13.886Z,32.10
2018-06-15T07:22:42.457Z,29.57
2018-06-15T07:25:10.944Z,49.90
2018-06-15T07:27:39.422Z,35.03
2018-06-15T07:30:08.403Z,32.27
2018-06-15T07:32:36.998Z,29.80
2018-06-15T07:35:05.462Z,40.80
2018-06-15T07:37:34.085Z,28.67
2018-06-15T07:40:03.000Z,26.57
2018-06-15T07:42:32.404Z,24.13
2018-06-15T07:45:01.933Z,25.33
2018-06-15T07:47:31.106Z,22.63
2018-06-15T07:50:00.098Z,26.50
2018-06-15T07:52:28.630Z,23.83
2018-06-15T07:54:57.628Z,33.03
2018-06-15T07:57:26.577Z,24.87
2018-06-15T07:59:55.609Z,27.70
2018-06-15T08:02:24.654Z,23.77
2018-06-15T08:04:53.655Z,27.83
2018-06-15T08:07:22.950Z,26.03
2018-06-15T08:09:51.897Z,21.13
2018-06-15T08:12:20.808Z,18.90
2018-06-15T08:14:50.237Z,27.00
2018-06-15T08:17:18.960Z,26.57
2018-06-15T08:19:47.457Z,22.40
2018-06-15T08:22:15.966Z,18.33
2018-06-15T08:24:44.703Z,25.70
2018-06-15T08:27:13.259Z,18.40
2018-06-15T08:29:41.779Z,19.90
2018-06-15T08:32:11.343Z,24.70
2018-06-15T08:34:40.446Z,20.73
2018-06-15T08:37:09.363Z,22.73
2018-06-15T08:39:37.802Z,22.70
2018-06-15T08:42:07.268Z,16.40
2018-06-15T08:44:35.755Z,25.60
2018-06-15T08:47:04.462Z,21.60
2018-06-15T08:49:33.611Z,24.37
2018-06-15T08:52:02.434Z,36.17
2018-06-15T08:54:31.666Z,23.33
2018-06-15T08:57:00.297Z,26.97
2018-06-15T08:59:29.000Z,26.47
2018-06-15T09:02:01.452Z,24.97
2018-06-15T09:04:32.064Z,23.37
2018-06-15T09:07:00.569Z,18.60
2018-06-15T09:09:29.680Z,20.60
2018-06-15T09:11:58.527Z,24.10
2018-06-15T09:14:27.731Z,22.13
2018-06-15T09:16:56.257Z,20.17
2018-06-15T09:19:25.013Z,19.83
2018-06-15T09:21:53.489Z,22.20
2018-06-15T09:24:22.219Z,17.73
2018-06-15T09:26:51.085Z,14.30
2018-06-15T09:29:19.605Z,24.20
2018-06-15T09:31:48.296Z,16.23
2018-06-15T09:34:17.246Z,18.37
2018-06-15T09:36:46.398Z,18.43
2018-06-15T09:39:14.948Z,18.93
2018-06-15T09:41:44.126Z,16.60
2018-06-15T09:44:12.587Z,20.10
2018-06-15T09:46:41.298Z,17.27
2018-06-15T09:49:10.104Z,17.43
2018-06-15T09:51:39.080Z,17.43
2018-06-15T09:54:08.098Z,16.23
2018-06-15T09:56:37.099Z,18.50
2018-06-15T09:59:05.763Z,18.70
2018-06-15T10:01:34.654Z,19.23
2018-06-15T10:04:03.544Z,18.33
2018-06-15T10:06:32.987Z,18.13
2018-06-15T10:09:01.562Z,16.83
2018-06-15T10:11:30.058Z,21.50
2018-06-15T10:13:58.502Z,17.77
2018-06-15T10:16:27.366Z,20.97
2018-06-15T10:18:55.842Z,18.97
2018-06-15T10:21:24.712Z,22.30
2018-06-15T10:23:53.505Z,19.37
2018-06-15T10:26:23.090Z,24.40
2018-06-15T10:28:51.658Z,20.60
2018-06-15T10:31:20.138Z,19.73
2018-06-15T10:33:48.599Z,17.47
2018-06-15T10:36:18.041Z,23.77
2018-06-15T10:38:47.447Z,20.70
2018-06-15T10:41:16.012Z,17.97
2018-06-15T10:43:44.546Z,15.07
2018-06-15T10:46:14.104Z,17.27
2018-06-15T10:48:43.483Z,21.10
2018-06-15T10:51:12.829Z,15.97
2018-06-15T10:53:41.356Z,27.43
2018-06-15T10:56:09.836Z,16.50
2018-06-15T10:58:38.842Z,21.03
2018-06-15T11:01:07.393Z,16.60
2018-06-15T11:03:36.118Z,15.60
2018-06-15T11:06:04.683Z,14.43
2018-06-15T11:08:33.213Z,14.70
2018-06-15T11:11:02.058Z,10.80
2018-06-15T11:13:30.925Z,13.80
2018-06-15T11:15:59.378Z,14.03
2018-06-15T11:18:27.839Z,13.40
2018-06-15T11:20:56.558Z,11.93
2018-06-15T11:23:25.116Z,13.00
2018-06-15T11:25:53.585Z,13.10
2018-06-15T11:28:22.044Z,18.33
2018-06-15T11:30:50.932Z,15.53
2018-06-15T11:33:19.746Z,13.63
2018-06-15T11:35:48.639Z,11.30
2018-06-15T11:38:17.672Z,13.33
2018-06-15T11:40:46.214Z,9.13
2018-06-15T11:43:14.646Z,12.00
2018-06-15T11:45:43.115Z,26.53
2018-06-15T11:48:11.831Z,9.10
2018-06-15T11:50:40.833Z,14.00
2018-06-15T11:53:09.611Z,11.70
2018-06-15T11:55:39.058Z,12.23
2018-06-15T11:58:07.593Z,13.00
2018-06-15T12:00:36.275Z,10.37
2018-06-15T12:03:04.838Z,16.63
2018-06-15T12:05:33.530Z,12.93
2018-06-15T12:08:02.380Z,11.10
2018-06-15T12:10:30.925Z,11.80
2018-06-15T12:12:59.622Z,13.13
2018-06-15T12:15:28.886Z,15.10
2018-06-15T12:17:57.371Z,16.30
2018-06-15T12:20:25.858Z,11.83
2018-06-15T12:22:54.302Z,11.23
2018-06-15T12:25:23.095Z,7.90
2018-06-15T12:27:52.189Z,8.10
2018-06-15T12:30:21.088Z,15.60
2018-06-15T12:32:50.371Z,8.80
2018-06-15T12:35:19.586Z,8.83
2018-06-15T12:37:48.655Z,6.83
2018-06-15T12:40:17.417Z,12.33
2018-06-15T12:42:46.893Z,9.57
2018-06-15T12:45:15.922Z,9.00
2018-06-15T12:47:44.539Z,7.53
2018-06-15T12:50:13.349Z,11.40
2018-06-15T12:52:41.821Z,8.13
2018-06-15T12:55:10.726Z,5.70
2018-06-15T12:57:39.298Z,8.33
2018-06-15T13:00:07.738Z,7.23
2018-06-15T13:02:36.225Z,7.77
2018-06-15T13:05:05.053Z,8.40
2018-06-15T13:07:34.050Z,9.60
2018-06-15T13:10:02.973Z,9.53
2018-06-15T13:12:31.746Z,9.30
2018-06-15T13:15:00.266Z,10.20
2018-06-15T13:17:29.306Z,7.23
2018-06-15T13:19:58.619Z,8.13
2018-06-15T13:22:27.074Z,7.47
2018-06-15T13:24:56.099Z,9.43
2018-06-15T13:27:25.499Z,9.97
2018-06-15T13:29:54.699Z,8.63
2018-06-15T13:32:23.511Z,7.70
2018-06-15T13:34:52.994Z,9.27
2018-06-15T13:37:22.662Z,9.47
2018-06-15T13:39:51.177Z,7.27
2018-06-15T13:42:20.218Z,6.60
2018-06-15T13:44:48.931Z,9.63
2018-06-15T13:47:21.018Z,5.97
2018-06-15T13:49:49.566Z,9.67
2018-06-15T13:52:18.305Z,8.90
2018-06-15T13:54:47.157Z,7.57
2018-06-15T13:57:15.621Z,9.13
2018-06-15T13:59:44.951Z,6.50
2018-06-15T14:02:13.500Z,7.37
2018-06-15T14:04:41.951Z,6.40
2018-06-15T14:07:11.206Z,9.60
2018-06-15T14:09:39.674Z,11.27
2018-06-15T14:12:08.106Z,9.57
2018-06-15T14:14:37.110Z,8.00
2018-06-15T14:17:06.093Z,8.17
2018-06-15T14:19:35.011Z,9.87
2018-06-15T14:22:03.473Z,12.50
2018-06-15T14:24:33.357Z,8.13
2018-06-15T14:27:01.811Z,11.97
2018-06-15T14:29:30.266Z,7.67
2018-06-15T14:31:59.410Z,11.10
2018-06-15T14:34:28.226Z,7.53
2018-06-15T14:36:57.035Z,13.23
2018-06-15T14:39:26.671Z,9.07
2018-06-15T14:41:55.892Z,7.23
2018-06-15T14:44:24.847Z,8.40
2018-06-15T14:46:53.425Z,8.73
2018-06-15T14:49:22.186Z,16.20
2018-06-15T14:51:50.832Z,7.03
2018-06-15T14:54:19.689Z,28.67
2018-06-15T14:56:48.193Z,7.23
2018-06-15T14:59:16.869Z,10.90
2018-06-15T15:01:45.948Z,9.23
2018-06-15T15:04:14.769Z,9.30
2018-06-15T15:06:43.265Z,7.33
2018-06-15T15:09:11.753Z,7.83
2018-06-15T15:11:40.218Z,7.33
2018-06-15T15:14:08.993Z,7.97
2018-06-15T15:16:37.472Z,9.30
2018-06-15T15:19:05.999Z,9.60
2018-06-15T15:21:34.458Z,7.70
2018-06-15T15:24:03.332Z,12.70
2018-06-15T15:26:32.304Z,11.00
2018-06-15T15:29:00.739Z,9.47
2018-06-15T15:31:29.949Z,10.83
2018-06-15T15:33:58.422Z,15.00
2018-06-15T15:36:27.415Z,9.47
2018-06-15T15:38:55.850Z,13.90
2018-06-15T15:41:24.949Z,11.23
2018-06-15T15:43:53.502Z,10.30
2018-06-15T15:46:22.631Z,10.77
2018-06-15T15:48:51.347Z,9.47
2018-06-15T15:51:19.963Z,13.17
2018-06-15T15:53:48.738Z,10.03
2018-06-15T15:56:17.573Z,7.93
2018-06-15T15:58:46.312Z,13.87
2018-06-15T16:01:14.858Z,7.50
2018-06-15T16:03:43.333Z,9.83
2018-06-15T16:06:11.785Z,10.23
2018-06-15T16:08:40.643Z,9.17
2018-06-15T16:11:09.285Z,8.70
2018-06-15T16:13:37.833Z,8.97
2018-06-15T16:16:07.447Z,13.40
2018-06-15T16:18:35.973Z,7.97
2018-06-15T16:21:05.663Z,10.80
2018-06-15T16:23:34.193Z,8.07
2018-06-15T16:26:03.358Z,10.83
2018-06-15T16:28:32.786Z,6.13
2018-06-15T16:31:01.337Z,7.63
2018-06-15T16:33:29.823Z,7.33
2018-06-15T16:35:58.322Z,9.50
2018-06-15T16:38:28.180Z,7.30
2018-06-15T16:40:57.231Z,7.80
2018-06-15T16:43:26.500Z,7.30
2018-06-15T16:45:55.434Z,7.07
2018-06-15T16:48:24.589Z,6.47
2018-06-15T16:50:53.397Z,7.13
2018-06-15T16:53:22.211Z,8.20
2018-06-15T16:55:51.357Z,12.00
2018-06-15T16:58:20.165Z,8.53
2018-06-15T17:00:49.324Z,8.40
2018-06-15T17:03:18.449Z,7.37
2018-06-15T17:05:47.251Z,8.73
2018-06-15T17:08:16.507Z,6.20
2018-06-15T17:10:45.652Z,9.17
2018-06-15T17:13:14.880Z,6.20
2018-06-15T17:15:44.204Z,6.17
2018-06-15T17:18:13.096Z,7.63
2018-06-15T17:20:42.735Z,9.47
2018-06-15T17:23:12.214Z,9.40
2018-06-15T17:25:41.736Z,9.73
2018-06-15T17:28:10.849Z,7.00
2018-06-15T17:30:40.489Z,8.70
2018-06-15T17:33:09.339Z,6.23
2018-06-15T17:35:38.427Z,5.90
2018-06-15T17:38:08.046Z,7.40
2018-06-15T17:40:37.207Z,12.50
2018-06-15T17:43:06.188Z,9.97
2018-06-15T17:45:35.194Z,10.13
2018-06-15T17:48:04.229Z,8.43
2018-06-15T17:50:33.238Z,9.50
2018-06-15T17:53:02.814Z,7.63
2018-06-15T17:55:31.936Z,11.07
2018-06-15T17:58:01.157Z,9.77
2018-06-15T18:00:30.084Z,7.93
2018-06-15T18:02:59.130Z,8.23
2018-06-15T18:05:28.568Z,8.20
2018-06-15T18:07:57.422Z,7.90
2018-06-15T18:10:26.205Z,10.03
2018-06-15T18:12:54.838Z,7.87
2018-06-15T18:15:23.961Z,6.40
2018-06-15T18:17:52.773Z,7.70
2018-06-15T18:20:22.019Z,5.03
2018-06-15T18:22:51.259Z,6.93
2018-06-15T18:25:20.378Z,7.27
2018-06-15T18:27:49.201Z,6.50
2018-06-15T18:30:18.457Z,6.40
2018-06-15T18:32:47.013Z,9.87
2018-06-15T18:35:15.695Z,6.80
2018-06-15T18:37:44.253Z,6.67
2018-06-15T18:40:13.970Z,12.60
2018-06-15T18:42:43.121Z,8.90
2018-06-15T18:45:11.767Z,10.13
2018-06-15T18:47:40.633Z,6.93
2018-06-15T18:50:09.093Z,8.83
2018-06-15T18:52:38.374Z,7.33
2018-06-15T18:55:07.403Z,11.87
2018-06-15T18:57:35.873Z,6.90
2018-06-15T19:00:05.076Z,6.03
2018-06-15T19:02:34.290Z,7.53
2018-06-15T19:05:03.053Z,9.90
2018-06-15T19:07:32.212Z,7.90
2018-06-15T19:10:01.007Z,7.93
2018-06-15T19:12:29.805Z,6.30
2018-06-15T19:14:58.980Z,5.50
2018-06-15T19:17:28.187Z,7.57
2018-06-15T19:19:57.158Z,8.67
2018-06-15T19:22:26.058Z,7.13
2018-06-15T19:24:55.199Z,9.70
2018-06-15T19:27:24.910Z,6.53
2018-06-15T19:29:54.107Z,7.00
2018-06-15T19:32:23.395Z,7.03
2018-06-15T19:34:52.007Z,6.93
2018-06-15T19:37:20.516Z,7.23
2018-06-15T19:39:49.241Z,6.63
2018-06-15T19:42:18.126Z,7.10
2018-06-15T19:44:47.023Z,10.33
2018-06-15T19:47:16.342Z,8.20
2018-06-15T19:49:45.178Z,9.27
2018-06-15T19:52:14.142Z,7.63
2018-06-15T19:54:42.861Z,5.80
2018-06-15T19:57:11.358Z,9.67
2018-06-15T19:59:39.880Z,8.23
2018-06-15T20:02:08.357Z,6.37
2018-06-15T20:04:37.203Z,6.10
2018-06-15T20:07:05.823Z,5.97
2018-06-15T20:09:34.443Z,15.00
2018-06-15T20:12:02.886Z,7.93
2018-06-15T20:14:31.770Z,6.80
2018-06-15T20:17:00.646Z,7.27
2018-06-15T20:19:29.768Z,9.50
2018-06-15T20:21:58.922Z,11.87
2018-06-15T20:24:27.723Z,8.43
2018-06-15T20:26:56.266Z,8.70
2018-06-15T20:29:25.262Z,9.67
2018-06-15T20:31:54.278Z,8.13
2018-06-15T20:34:22.957Z,10.23
2018-06-15T20:36:51.509Z,17.40
2018-06-15T20:39:20.110Z,14.33
2018-06-15T20:41:48.906Z,12.47
2018-06-15T20:44:17.823Z,7.63
2018-06-15T20:46:46.773Z,12.30
2018-06-15T20:49:16.279Z,10.43
2018-06-15T20:51:45.362Z,7.87
2018-06-15T20:54:14.342Z,9.00
2018-06-15T20:56:43.341Z,9.60
2018-06-15T20:59:12.463Z,8.63
2018-06-15T21:01:40.998Z,11.20
2018-06-15T21:04:09.466Z,10.33
2018-06-15T21:06:39.050Z,8.13
2018-06-15T21:09:08.657Z,12.07
2018-06-15T21:11:37.795Z,14.27
2018-06-15T21:14:06.898Z,12.43
2018-06-15T21:16:36.775Z,15.03
2018-06-15T21:19:06.431Z,8.17
2018-06-15T21:21:35.527Z,11.33
2018-06-15T21:24:04.231Z,9.90
2018-06-15T21:26:33.774Z,9.47
2018-06-15T21:29:02.610Z,9.67
2018-06-15T21:31:32.059Z,11.17
2018-06-15T21:34:00.840Z,8.40
2018-06-15T21:36:29.812Z,9.20
2018-06-15T21:38:58.638Z,11.50
2018-06-15T21:41:27.511Z,13.60
2018-06-15T21:43:56.591Z,22.83
2018-06-15T21:46:25.425Z,14.13
2018-06-15T21:48:54.610Z,8.87
2018-06-15T21:51:23.412Z,9.30
2018-06-15T21:53:52.217Z,8.00
2018-06-15T21:56:21.478Z,10.27
2018-06-15T21:58:50.699Z,12.70
2018-06-15T22:01:20.630Z,12.27
2018-06-15T22:03:49.878Z,15.50
2018-06-15T22:06:18.950Z,16.43
2018-06-15T22:08:47.507Z,10.80
2018-06-15T22:11:16.605Z,10.00
2018-06-15T22:13:46.486Z,8.67
2018-06-15T22:16:15.320Z,8.63
2018-06-15T22:18:44.099Z,9.00
2018-06-15T22:21:13.410Z,11.67
2018-06-15T22:23:42.305Z,8.90
2018-06-15T22:26:11.763Z,11.20
2018-06-15T22:28:40.466Z,11.23
2018-06-15T22:31:09.335Z,11.60
2018-06-15T22:33:38.159Z,10.93
2018-06-15T22:36:07.441Z,10.90
2018-06-15T22:38:36.687Z,9.13
2018-06-15T22:41:05.777Z,10.47
2018-06-15T22:43:34.846Z,8.53
2018-06-15T22:46:04.371Z,8.93
2018-06-15T22:48:33.195Z,10.70
2018-06-15T22:51:02.006Z,8.67
2018-06-15T22:53:30.822Z,9.47
2018-06-15T22:55:59.656Z,8.50
2018-06-15T22:58:28.836Z,11.23
2018-06-15T23:00:57.969Z,9.30
2018-06-15T23:03:26.782Z,8.97
2018-06-15T23:05:55.933Z,12.20
2018-06-15T23:08:24.812Z,10.83
2018-06-15T23:10:54.238Z,9.60
2018-06-15T23:13:23.119Z,10.97
2018-06-15T23:15:52.272Z,10.80
2018-06-15T23:18:21.087Z,12.53
2018-06-15T23:20:50.209Z,13.80
2018-06-15T23:23:19.423Z,10.67
2018-06-15T23:25:48.221Z,10.13
2018-06-15T23:28:17.037Z,10.60
2018-06-15T23:30:46.139Z,9.33
2018-06-15T23:33:15.228Z,11.70
2018-06-15T23:35:44.399Z,11.40
2018-06-15T23:38:13.539Z,12.00
2018-06-15T23:40:42.133Z,14.00
2018-06-15T23:43:10.834Z,11.57
2018-06-15T23:45:39.654Z,11.40
2018-06-15T23:48:08.446Z,13.73
2018-06-15T23:50:37.221Z,11.97
2018-06-15T23:53:06.345Z,11.50
2018-06-15T23:55:35.563Z,12.60
2018-06-15T23:58:04.153Z,13.93
